sensor_id;sensor_type;location;lat;lon;timestamp;P1;durP1;ratioP1;P2;durP2;ratioP2
14992;SDS011;7592;51.088;13.732;2023-11-19T00:01:15;11.30;;;8.80;;
14992;SDS011;7592;51.088;13.732;2023-11-19T00:06:08;10.67;;;8.97;;
14992;SDS011;7592;51.088;13.732;2023-11-19T00:11:03;11.00;;;9.23;;
14992;SDS011;7592;51.088;13.732;2023-11-19T00:15:56;11.20;;;9.23;;
14992;SDS011;7592;51.088;13.732;2023-11-19T00:20:48;12.40;;;8.97;;
14992;SDS011;7592;51.088;13.732;2023-11-19T00:25:40;11.80;;;8.83;;
14992;SDS011;7592;51.088;13.732;2023-11-19T00:30:34;10.63;;;9.47;;
14992;SDS011;7592;51.088;13.732;2023-11-19T00:35:26;11.23;;;9.30;;
14992;SDS011;7592;51.088;13.732;2023-11-19T00:40:18;11.27;;;9.70;;
14992;SDS011;7592;51.088;13.732;2023-11-19T00:45:13;11.33;;;9.33;;
14992;SDS011;7592;51.088;13.732;2023-11-19T00:50:06;11.47;;;9.23;;
14992;SDS011;7592;51.088;13.732;2023-11-19T00:55:01;10.00;;;8.97;;
14992;SDS011;7592;51.088;13.732;2023-11-19T00:59:54;9.83;;;8.60;;
14992;SDS011;7592;51.088;13.732;2023-11-19T01:04:46;8.93;;;8.03;;
14992;SDS011;7592;51.088;13.732;2023-11-19T01:09:38;12.07;;;9.13;;
14992;SDS011;7592;51.088;13.732;2023-11-19T01:14:33;9.40;;;7.50;;
14992;SDS011;7592;51.088;13.732;2023-11-19T01:19:25;9.53;;;7.73;;
14992;SDS011;7592;51.088;13.732;2023-11-19T01:24:17;8.90;;;7.60;;
14992;SDS011;7592;51.088;13.732;2023-11-19T01:29:16;8.47;;;7.03;;
14992;SDS011;7592;51.088;13.732;2023-11-19T01:34:08;8.63;;;6.30;;
14992;SDS011;7592;51.088;13.732;2023-11-19T01:39:01;5.87;;;5.27;;
14992;SDS011;7592;51.088;13.732;2023-11-19T01:43:55;6.50;;;5.10;;
14992;SDS011;7592;51.088;13.732;2023-11-19T01:48:47;5.63;;;5.03;;
14992;SDS011;7592;51.088;13.732;2023-11-19T01:53:39;5.87;;;4.67;;
14992;SDS011;7592;51.088;13.732;2023-11-19T01:58:32;4.80;;;4.17;;
14992;SDS011;7592;51.088;13.732;2023-11-19T02:03:25;4.97;;;4.10;;
14992;SDS011;7592;51.088;13.732;2023-11-19T02:08:21;4.60;;;4.10;;
14992;SDS011;7592;51.088;13.732;2023-11-19T02:13:13;3.60;;;3.30;;
14992;SDS011;7592;51.088;13.732;2023-11-19T02:23:32;3.43;;;3.13;;
14992;SDS011;7592;51.088;13.732;2023-11-19T02:28:24;3.80;;;3.50;;
14992;SDS011;7592;51.088;13.732;2023-11-19T02:33:17;3.73;;;2.60;;
14992;SDS011;7592;51.088;13.732;2023-11-19T02:38:09;3.03;;;2.73;;
14992;SDS011;7592;51.088;13.732;2023-11-19T02:43:02;3.20;;;2.93;;
14992;SDS011;7592;51.088;13.732;2023-11-19T02:47:56;2.43;;;2.30;;
14992;SDS011;7592;51.088;13.732;2023-11-19T02:52:48;2.40;;;2.20;;
14992;SDS011;7592;51.088;13.732;2023-11-19T02:57:41;2.40;;;2.20;;
14992;SDS011;7592;51.088;13.732;2023-11-19T03:02:40;2.10;;;1.90;;
14992;SDS011;7592;51.088;13.732;2023-11-19T03:07:39;2.50;;;2.30;;
14992;SDS011;7592;51.088;13.732;2023-11-19T03:12:35;2.07;;;1.97;;
14992;SDS011;7592;51.088;13.732;2023-11-19T03:17:27;5.33;;;2.00;;
14992;SDS011;7592;51.088;13.732;2023-11-19T03:22:19;2.47;;;2.27;;
14992;SDS011;7592;51.088;13.732;2023-11-19T03:27:12;2.00;;;1.90;;
14992;SDS011;7592;51.088;13.732;2023-11-19T03:32:06;2.43;;;2.23;;
14992;SDS011;7592;51.088;13.732;2023-11-19T03:36:58;1.60;;;1.50;;
14992;SDS011;7592;51.088;13.732;2023-11-19T03:41:50;2.33;;;1.70;;
14992;SDS011;7592;51.088;13.732;2023-11-19T03:46:42;1.63;;;1.27;;
14992;SDS011;7592;51.088;13.732;2023-11-19T03:51:34;1.60;;;1.50;;
14992;SDS011;7592;51.088;13.732;2023-11-19T03:56:27;1.60;;;1.50;;
14992;SDS011;7592;51.088;13.732;2023-11-19T04:01:19;1.80;;;1.70;;
14992;SDS011;7592;51.088;13.732;2023-11-19T04:06:12;1.73;;;1.63;;
14992;SDS011;7592;51.088;13.732;2023-11-19T04:11:04;2.50;;;2.30;;
14992;SDS011;7592;51.088;13.732;2023-11-19T04:15:57;3.07;;;2.70;;
14992;SDS011;7592;51.088;13.732;2023-11-19T04:20:49;6.47;;;2.90;;
14992;SDS011;7592;51.088;13.732;2023-11-19T04:25:42;3.53;;;3.00;;
14992;SDS011;7592;51.088;13.732;2023-11-19T04:30:34;4.33;;;3.63;;
14992;SDS011;7592;51.088;13.732;2023-11-19T04:35:27;6.07;;;5.33;;
14992;SDS011;7592;51.088;13.732;2023-11-19T04:40:19;7.53;;;5.43;;
14992;SDS011;7592;51.088;13.732;2023-11-19T04:45:14;8.70;;;6.13;;
14992;SDS011;7592;51.088;13.732;2023-11-19T04:50:07;9.83;;;6.37;;
14992;SDS011;7592;51.088;13.732;2023-11-19T04:55:02;6.70;;;6.00;;
14992;SDS011;7592;51.088;13.732;2023-11-19T04:59:55;6.70;;;6.10;;
14992;SDS011;7592;51.088;13.732;2023-11-19T05:04:47;9.17;;;6.50;;
14992;SDS011;7592;51.088;13.732;2023-11-19T05:09:40;7.63;;;6.93;;
14992;SDS011;7592;51.088;13.732;2023-11-19T05:14:34;8.03;;;6.73;;
14992;SDS011;7592;51.088;13.732;2023-11-19T05:19:26;8.53;;;7.27;;
14992;SDS011;7592;51.088;13.732;2023-11-19T05:24:18;7.60;;;6.80;;
14992;SDS011;7592;51.088;13.732;2023-11-19T05:29:10;8.13;;;7.33;;
14992;SDS011;7592;51.088;13.732;2023-11-19T05:34:02;8.23;;;7.10;;
14992;SDS011;7592;51.088;13.732;2023-11-19T05:38:55;9.10;;;8.13;;
14992;SDS011;7592;51.088;13.732;2023-11-19T05:43:48;9.13;;;8.23;;
14992;SDS011;7592;51.088;13.732;2023-11-19T05:48:40;14.43;;;12.40;;
14992;SDS011;7592;51.088;13.732;2023-11-19T05:53:32;11.43;;;9.33;;
14992;SDS011;7592;51.088;13.732;2023-11-19T05:58:24;11.10;;;9.20;;
14992;SDS011;7592;51.088;13.732;2023-11-19T06:03:18;9.90;;;8.57;;
14992;SDS011;7592;51.088;13.732;2023-11-19T06:08:10;11.23;;;9.47;;
14992;SDS011;7592;51.088;13.732;2023-11-19T06:13:03;10.00;;;8.70;;
14992;SDS011;7592;51.088;13.732;2023-11-19T06:17:56;9.83;;;8.83;;
14992;SDS011;7592;51.088;13.732;2023-11-19T06:22:52;10.67;;;9.50;;
14992;SDS011;7592;51.088;13.732;2023-11-19T06:27:44;9.83;;;8.83;;
14992;SDS011;7592;51.088;13.732;2023-11-19T06:32:36;10.37;;;8.63;;
14992;SDS011;7592;51.088;13.732;2023-11-19T06:37:28;7.60;;;6.67;;
14992;SDS011;7592;51.088;13.732;2023-11-19T06:42:21;7.50;;;6.70;;
14992;SDS011;7592;51.088;13.732;2023-11-19T06:47:13;7.03;;;6.37;;
14992;SDS011;7592;51.088;13.732;2023-11-19T06:52:05;7.90;;;6.47;;
14992;SDS011;7592;51.088;13.732;2023-11-19T06:56:59;6.80;;;6.20;;
14992;SDS011;7592;51.088;13.732;2023-11-19T07:01:52;6.77;;;5.20;;
14992;SDS011;7592;51.088;13.732;2023-11-19T07:06:44;4.73;;;4.33;;
14992;SDS011;7592;51.088;13.732;2023-11-19T07:11:37;4.70;;;4.03;;
14992;SDS011;7592;51.088;13.732;2023-11-19T07:16:32;5.10;;;4.20;;
14992;SDS011;7592;51.088;13.732;2023-11-19T07:21:29;4.00;;;3.70;;
14992;SDS011;7592;51.088;13.732;2023-11-19T07:26:21;4.00;;;3.50;;
14992;SDS011;7592;51.088;13.732;2023-11-19T07:31:14;3.77;;;3.47;;
14992;SDS011;7592;51.088;13.732;2023-11-19T07:36:06;4.07;;;3.73;;
14992;SDS011;7592;51.088;13.732;2023-11-19T07:40:59;3.90;;;3.60;;
14992;SDS011;7592;51.088;13.732;2023-11-19T07:45:51;3.97;;;3.57;;
14992;SDS011;7592;51.088;13.732;2023-11-19T07:50:43;3.80;;;3.43;;
14992;SDS011;7592;51.088;13.732;2023-11-19T07:55:35;3.30;;;3.00;;
14992;SDS011;7592;51.088;13.732;2023-11-19T08:00:27;3.53;;;3.23;;
14992;SDS011;7592;51.088;13.732;2023-11-19T08:05:19;3.53;;;3.23;;
14992;SDS011;7592;51.088;13.732;2023-11-19T08:10:11;3.63;;;3.33;;
14992;SDS011;7592;51.088;13.732;2023-11-19T08:15:03;3.77;;;3.47;;
14992;SDS011;7592;51.088;13.732;2023-11-19T08:19:56;4.63;;;4.20;;
14992;SDS011;7592;51.088;13.732;2023-11-19T08:24:48;3.63;;;3.33;;
14992;SDS011;7592;51.088;13.732;2023-11-19T08:29:40;3.53;;;3.33;;
14992;SDS011;7592;51.088;13.732;2023-11-19T08:34:32;3.87;;;3.57;;
14992;SDS011;7592;51.088;13.732;2023-11-19T08:39:24;3.23;;;2.40;;
14992;SDS011;7592;51.088;13.732;2023-11-19T08:44:16;2.23;;;1.77;;
14992;SDS011;7592;51.088;13.732;2023-11-19T08:49:11;2.73;;;1.73;;
14992;SDS011;7592;51.088;13.732;2023-11-19T08:54:03;2.33;;;2.13;;
14992;SDS011;7592;51.088;13.732;2023-11-19T08:58:55;1.77;;;1.67;;
14992;SDS011;7592;51.088;13.732;2023-11-19T09:03:48;1.90;;;1.80;;
14992;SDS011;7592;51.088;13.732;2023-11-19T09:08:41;3.23;;;1.50;;
14992;SDS011;7592;51.088;13.732;2023-11-19T09:13:34;2.80;;;2.60;;
14992;SDS011;7592;51.088;13.732;2023-11-19T09:18:27;2.40;;;2.30;;
14992;SDS011;7592;51.088;13.732;2023-11-19T09:23:19;3.30;;;2.43;;
14992;SDS011;7592;51.088;13.732;2023-11-19T09:28:11;2.73;;;2.53;;
14992;SDS011;7592;51.088;13.732;2023-11-19T09:33:05;2.00;;;1.67;;
14992;SDS011;7592;51.088;13.732;2023-11-19T09:37:58;2.60;;;1.00;;
14992;SDS011;7592;51.088;13.732;2023-11-19T09:42:52;2.47;;;1.10;;
14992;SDS011;7592;51.088;13.732;2023-11-19T09:47:45;1.80;;;1.40;;
14992;SDS011;7592;51.088;13.732;2023-11-19T09:52:37;5.83;;;3.60;;
14992;SDS011;7592;51.088;13.732;2023-11-19T09:57:29;3.40;;;3.07;;
14992;SDS011;7592;51.088;13.732;2023-11-19T10:02:26;2.80;;;1.10;;
14992;SDS011;7592;51.088;13.732;2023-11-19T10:07:23;1.23;;;0.97;;
14992;SDS011;7592;51.088;13.732;2023-11-19T10:12:18;2.90;;;0.67;;
14992;SDS011;7592;51.088;13.732;2023-11-19T10:17:10;2.63;;;0.73;;
14992;SDS011;7592;51.088;13.732;2023-11-19T10:22:05;0.63;;;0.43;;
14992;SDS011;7592;51.088;13.732;2023-11-19T10:26:57;1.90;;;0.50;;
14992;SDS011;7592;51.088;13.732;2023-11-19T10:31:56;1.10;;;0.50;;
14992;SDS011;7592;51.088;13.732;2023-11-19T10:37:16;2.70;;;0.63;;
14992;SDS011;7592;51.088;13.732;2023-11-19T10:42:19;1.13;;;0.60;;
14992;SDS011;7592;51.088;13.732;2023-11-19T10:47:13;3.00;;;0.60;;
14992;SDS011;7592;51.088;13.732;2023-11-19T10:52:08;1.97;;;0.73;;
14992;SDS011;7592;51.088;13.732;2023-11-19T10:57:01;0.93;;;0.47;;
14992;SDS011;7592;51.088;13.732;2023-11-19T11:01:54;2.10;;;1.10;;
14992;SDS011;7592;51.088;13.732;2023-11-19T11:06:47;1.13;;;0.50;;
14992;SDS011;7592;51.088;13.732;2023-11-19T11:11:40;3.23;;;1.30;;
14992;SDS011;7592;51.088;13.732;2023-11-19T11:16:35;1.20;;;0.60;;
14992;SDS011;7592;51.088;13.732;2023-11-19T11:21:29;1.70;;;0.70;;
14992;SDS011;7592;51.088;13.732;2023-11-19T11:37:26;0.97;;;0.40;;
14992;SDS011;7592;51.088;13.732;2023-11-19T11:47:16;2.03;;;0.60;;
14992;SDS011;7592;51.088;13.732;2023-11-19T11:52:08;2.17;;;0.57;;
14992;SDS011;7592;51.088;13.732;2023-11-19T11:57:12;1.40;;;0.60;;
14992;SDS011;7592;51.088;13.732;2023-11-19T12:02:07;1.73;;;0.63;;
14992;SDS011;7592;51.088;13.732;2023-11-19T12:07:07;3.43;;;1.80;;
14992;SDS011;7592;51.088;13.732;2023-11-19T12:17:32;2.67;;;0.87;;
14992;SDS011;7592;51.088;13.732;2023-11-19T12:22:26;3.00;;;0.83;;
14992;SDS011;7592;51.088;13.732;2023-11-19T12:27:18;2.70;;;0.90;;
14992;SDS011;7592;51.088;13.732;2023-11-19T12:32:10;5.40;;;0.90;;
14992;SDS011;7592;51.088;13.732;2023-11-19T12:37:06;4.70;;;1.13;;
14992;SDS011;7592;51.088;13.732;2023-11-19T12:42:00;2.97;;;1.30;;
14992;SDS011;7592;51.088;13.732;2023-11-19T12:47:05;4.07;;;1.33;;
14992;SDS011;7592;51.088;13.732;2023-11-19T12:51:59;4.60;;;1.50;;
14992;SDS011;7592;51.088;13.732;2023-11-19T12:56:52;7.00;;;1.60;;
14992;SDS011;7592;51.088;13.732;2023-11-19T13:01:57;5.33;;;2.47;;
14992;SDS011;7592;51.088;13.732;2023-11-19T13:06:50;5.63;;;1.90;;
14992;SDS011;7592;51.088;13.732;2023-11-19T13:11:45;7.47;;;1.40;;
14992;SDS011;7592;51.088;13.732;2023-11-19T13:16:38;6.67;;;1.93;;
14992;SDS011;7592;51.088;13.732;2023-11-19T13:21:31;6.40;;;1.60;;
14992;SDS011;7592;51.088;13.732;2023-11-19T13:26:24;5.93;;;2.00;;
14992;SDS011;7592;51.088;13.732;2023-11-19T13:31:16;7.13;;;1.93;;
14992;SDS011;7592;51.088;13.732;2023-11-19T13:36:08;8.23;;;2.03;;
14992;SDS011;7592;51.088;13.732;2023-11-19T13:41:03;7.83;;;1.70;;
14992;SDS011;7592;51.088;13.732;2023-11-19T13:45:56;5.93;;;1.70;;
14992;SDS011;7592;51.088;13.732;2023-11-19T13:50:50;8.30;;;2.13;;
14992;SDS011;7592;51.088;13.732;2023-11-19T13:55:42;8.70;;;2.20;;
14992;SDS011;7592;51.088;13.732;2023-11-19T14:00:34;36.50;;;12.07;;
14992;SDS011;7592;51.088;13.732;2023-11-19T14:05:26;8.50;;;1.97;;
14992;SDS011;7592;51.088;13.732;2023-11-19T14:10:22;11.27;;;3.20;;
14992;SDS011;7592;51.088;13.732;2023-11-19T14:15:14;9.17;;;2.50;;
14992;SDS011;7592;51.088;13.732;2023-11-19T14:20:08;10.17;;;2.13;;
14992;SDS011;7592;51.088;13.732;2023-11-19T14:25:09;9.30;;;2.13;;
14992;SDS011;7592;51.088;13.732;2023-11-19T14:30:04;8.40;;;2.23;;
14992;SDS011;7592;51.088;13.732;2023-11-19T14:34:57;9.53;;;2.17;;
14992;SDS011;7592;51.088;13.732;2023-11-19T14:39:49;10.30;;;1.97;;
14992;SDS011;7592;51.088;13.732;2023-11-19T14:44:42;10.10;;;1.90;;
14992;SDS011;7592;51.088;13.732;2023-11-19T14:49:34;8.80;;;1.97;;
14992;SDS011;7592;51.088;13.732;2023-11-19T14:54:27;6.83;;;1.90;;
14992;SDS011;7592;51.088;13.732;2023-11-19T14:59:19;7.33;;;2.10;;
14992;SDS011;7592;51.088;13.732;2023-11-19T15:04:11;12.93;;;2.33;;
14992;SDS011;7592;51.088;13.732;2023-11-19T15:09:04;6.37;;;1.87;;
14992;SDS011;7592;51.088;13.732;2023-11-19T15:13:56;9.50;;;2.57;;
14992;SDS011;7592;51.088;13.732;2023-11-19T15:18:48;7.00;;;2.17;;
14992;SDS011;7592;51.088;13.732;2023-11-19T15:23:41;10.17;;;2.30;;
14992;SDS011;7592;51.088;13.732;2023-11-19T15:28:33;10.23;;;2.10;;
14992;SDS011;7592;51.088;13.732;2023-11-19T15:33:25;7.50;;;2.10;;
14992;SDS011;7592;51.088;13.732;2023-11-19T15:38:17;7.33;;;2.17;;
14992;SDS011;7592;51.088;13.732;2023-11-19T15:43:09;10.73;;;2.07;;
14992;SDS011;7592;51.088;13.732;2023-11-19T15:48:01;5.93;;;2.23;;
14992;SDS011;7592;51.088;13.732;2023-11-19T15:52:54;10.50;;;2.33;;
14992;SDS011;7592;51.088;13.732;2023-11-19T15:57:46;10.20;;;2.90;;
14992;SDS011;7592;51.088;13.732;2023-11-19T16:02:38;6.47;;;2.10;;
14992;SDS011;7592;51.088;13.732;2023-11-19T16:07:30;16.77;;;3.13;;
14992;SDS011;7592;51.088;13.732;2023-11-19T16:12:24;13.13;;;4.00;;
14992;SDS011;7592;51.088;13.732;2023-11-19T16:17:16;12.03;;;4.03;;
14992;SDS011;7592;51.088;13.732;2023-11-19T16:22:08;11.93;;;3.20;;
14992;SDS011;7592;51.088;13.732;2023-11-19T16:27:04;9.97;;;3.00;;
14992;SDS011;7592;51.088;13.732;2023-11-19T16:31:56;8.77;;;2.70;;
14992;SDS011;7592;51.088;13.732;2023-11-19T16:36:48;11.87;;;3.50;;
14992;SDS011;7592;51.088;13.732;2023-11-19T16:41:41;9.53;;;3.33;;
14992;SDS011;7592;51.088;13.732;2023-11-19T16:46:34;12.53;;;3.17;;
14992;SDS011;7592;51.088;13.732;2023-11-19T16:51:28;9.77;;;3.37;;
14992;SDS011;7592;51.088;13.732;2023-11-19T16:56:20;9.07;;;3.10;;
14992;SDS011;7592;51.088;13.732;2023-11-19T17:01:14;10.63;;;3.63;;
14992;SDS011;7592;51.088;13.732;2023-11-19T17:06:06;9.90;;;3.83;;
14992;SDS011;7592;51.088;13.732;2023-11-19T17:11:00;11.03;;;3.57;;
14992;SDS011;7592;51.088;13.732;2023-11-19T17:15:53;9.10;;;3.83;;
14992;SDS011;7592;51.088;13.732;2023-11-19T17:20:47;8.67;;;3.77;;
14992;SDS011;7592;51.088;13.732;2023-11-19T17:25:39;9.40;;;3.73;;
14992;SDS011;7592;51.088;13.732;2023-11-19T17:30:33;8.50;;;3.80;;
14992;SDS011;7592;51.088;13.732;2023-11-19T17:35:25;8.93;;;3.90;;
14992;SDS011;7592;51.088;13.732;2023-11-19T17:40:18;13.40;;;4.20;;
14992;SDS011;7592;51.088;13.732;2023-11-19T17:45:10;10.37;;;3.40;;
14992;SDS011;7592;51.088;13.732;2023-11-19T17:50:02;10.00;;;3.83;;
14992;SDS011;7592;51.088;13.732;2023-11-19T17:55:14;13.63;;;4.03;;
14992;SDS011;7592;51.088;13.732;2023-11-19T18:00:07;10.20;;;3.50;;
14992;SDS011;7592;51.088;13.732;2023-11-19T18:05:05;10.90;;;3.33;;
14992;SDS011;7592;51.088;13.732;2023-11-19T18:09:57;7.43;;;3.10;;
14992;SDS011;7592;51.088;13.732;2023-11-19T18:14:49;14.43;;;4.60;;
14992;SDS011;7592;51.088;13.732;2023-11-19T18:19:45;24.03;;;8.33;;
14992;SDS011;7592;51.088;13.732;2023-11-19T18:24:37;19.27;;;7.83;;
14992;SDS011;7592;51.088;13.732;2023-11-19T18:29:29;22.37;;;8.90;;
14992;SDS011;7592;51.088;13.732;2023-11-19T18:34:22;21.30;;;7.90;;
14992;SDS011;7592;51.088;13.732;2023-11-19T18:39:14;20.93;;;6.77;;
14992;SDS011;7592;51.088;13.732;2023-11-19T18:44:07;15.73;;;5.80;;
14992;SDS011;7592;51.088;13.732;2023-11-19T18:48:59;12.40;;;4.43;;
14992;SDS011;7592;51.088;13.732;2023-11-19T18:53:52;15.63;;;4.63;;
14992;SDS011;7592;51.088;13.732;2023-11-19T18:58:44;9.00;;;3.30;;
14992;SDS011;7592;51.088;13.732;2023-11-19T19:03:36;9.83;;;3.30;;
14992;SDS011;7592;51.088;13.732;2023-11-19T19:08:29;7.67;;;2.43;;
14992;SDS011;7592;51.088;13.732;2023-11-19T19:13:21;12.80;;;4.30;;
14992;SDS011;7592;51.088;13.732;2023-11-19T19:18:16;10.63;;;2.87;;
14992;SDS011;7592;51.088;13.732;2023-11-19T19:23:08;10.87;;;3.30;;
14992;SDS011;7592;51.088;13.732;2023-11-19T19:28:02;9.27;;;2.80;;
14992;SDS011;7592;51.088;13.732;2023-11-19T19:33:00;5.77;;;1.90;;
14992;SDS011;7592;51.088;13.732;2023-11-19T19:37:52;9.53;;;3.77;;
14992;SDS011;7592;51.088;13.732;2023-11-19T19:42:44;10.00;;;2.97;;
14992;SDS011;7592;51.088;13.732;2023-11-19T19:47:36;6.60;;;2.77;;
14992;SDS011;7592;51.088;13.732;2023-11-19T19:52:31;9.80;;;2.90;;
14992;SDS011;7592;51.088;13.732;2023-11-19T19:57:27;7.53;;;2.33;;
14992;SDS011;7592;51.088;13.732;2023-11-19T20:02:19;12.00;;;2.90;;
14992;SDS011;7592;51.088;13.732;2023-11-19T20:07:11;9.97;;;1.60;;
14992;SDS011;7592;51.088;13.732;2023-11-19T20:12:04;8.43;;;2.00;;
14992;SDS011;7592;51.088;13.732;2023-11-19T20:16:57;9.33;;;2.43;;
14992;SDS011;7592;51.088;13.732;2023-11-19T20:21:52;10.47;;;2.70;;
14992;SDS011;7592;51.088;13.732;2023-11-19T20:26:44;7.57;;;2.13;;
14992;SDS011;7592;51.088;13.732;2023-11-19T20:31:41;8.43;;;2.20;;
14992;SDS011;7592;51.088;13.732;2023-11-19T20:36:33;6.00;;;1.80;;
14992;SDS011;7592;51.088;13.732;2023-11-19T20:41:26;6.83;;;1.77;;
14992;SDS011;7592;51.088;13.732;2023-11-19T20:46:19;5.87;;;1.60;;
14992;SDS011;7592;51.088;13.732;2023-11-19T20:51:11;6.97;;;1.80;;
14992;SDS011;7592;51.088;13.732;2023-11-19T20:56:04;9.30;;;1.60;;
14992;SDS011;7592;51.088;13.732;2023-11-19T21:07:16;8.40;;;1.60;;
14992;SDS011;7592;51.088;13.732;2023-11-19T21:12:09;7.43;;;1.97;;
14992;SDS011;7592;51.088;13.732;2023-11-19T21:17:01;7.03;;;1.80;;
14992;SDS011;7592;51.088;13.732;2023-11-19T21:21:53;8.67;;;1.80;;
14992;SDS011;7592;51.088;13.732;2023-11-19T21:26:46;4.50;;;1.60;;
14992;SDS011;7592;51.088;13.732;2023-11-19T21:31:41;7.90;;;1.63;;
14992;SDS011;7592;51.088;13.732;2023-11-19T21:36:36;6.53;;;1.90;;
14992;SDS011;7592;51.088;13.732;2023-11-19T21:41:28;5.33;;;1.67;;
14992;SDS011;7592;51.088;13.732;2023-11-19T21:46:21;9.47;;;1.87;;
14992;SDS011;7592;51.088;13.732;2023-11-19T21:51:13;5.93;;;1.77;;
14992;SDS011;7592;51.088;13.732;2023-11-19T21:56:05;5.77;;;1.50;;
14992;SDS011;7592;51.088;13.732;2023-11-19T22:01:01;4.50;;;1.80;;
14992;SDS011;7592;51.088;13.732;2023-11-19T22:05:55;4.90;;;1.30;;
14992;SDS011;7592;51.088;13.732;2023-11-19T22:10:48;5.27;;;1.63;;
14992;SDS011;7592;51.088;13.732;2023-11-19T22:15:46;4.23;;;1.17;;
14992;SDS011;7592;51.088;13.732;2023-11-19T22:20:40;5.90;;;1.63;;
14992;SDS011;7592;51.088;13.732;2023-11-19T22:25:34;6.50;;;1.40;;
14992;SDS011;7592;51.088;13.732;2023-11-19T22:30:29;7.07;;;1.90;;
14992;SDS011;7592;51.088;13.732;2023-11-19T22:35:25;5.17;;;1.50;;
14992;SDS011;7592;51.088;13.732;2023-11-19T22:40:22;9.10;;;1.77;;
14992;SDS011;7592;51.088;13.732;2023-11-19T22:45:21;6.43;;;1.43;;
14992;SDS011;7592;51.088;13.732;2023-11-19T22:50:13;5.23;;;1.40;;
14992;SDS011;7592;51.088;13.732;2023-11-19T22:55:05;6.43;;;1.60;;
14992;SDS011;7592;51.088;13.732;2023-11-19T23:00:03;7.67;;;1.70;;
14992;SDS011;7592;51.088;13.732;2023-11-19T23:05:01;6.27;;;2.10;;
14992;SDS011;7592;51.088;13.732;2023-11-19T23:09:55;32.37;;;17.47;;
14992;SDS011;7592;51.088;13.732;2023-11-19T23:14:50;9.83;;;4.90;;
14992;SDS011;7592;51.088;13.732;2023-11-19T23:19:43;11.97;;;5.10;;
14992;SDS011;7592;51.088;13.732;2023-11-19T23:24:36;12.60;;;5.07;;
14992;SDS011;7592;51.088;13.732;2023-11-19T23:29:28;17.03;;;6.30;;
14992;SDS011;7592;51.088;13.732;2023-11-19T23:34:23;7.83;;;2.20;;
14992;SDS011;7592;51.088;13.732;2023-11-19T23:39:37;9.20;;;2.60;;
14992;SDS011;7592;51.088;13.732;2023-11-19T23:44:29;14.67;;;4.70;;
14992;SDS011;7592;51.088;13.732;2023-11-19T23:49:22;7.10;;;2.17;;
14992;SDS011;7592;51.088;13.732;2023-11-19T23:54:14;8.90;;;2.43;;
14992;SDS011;7592;51.088;13.732;2023-11-19T23:59:07;9.73;;;3.60;;
